Time;durP1;ratioP1;P1;durP2;ratioP2;P2;SDS_P1;SDS_P2;PMS_P1;PMS_P2;Temp;Humidity;BMP_temperature;BMP_pressure;BME280_temperature;BME280_humidity;BME280_pressure;Samples;Min_cycle;Max_cycle;Signal;HPM_P1;HPM_P2
2022/05/15 00:01:31;;;;;;;16.08;12.77;;;;;;;;;;5040969;28;20045;-62
2022/05/15 00:04:01;;;;;;;13.90;11.95;;;;;;;;;;5055569;28;20521;-62
2022/05/15 00:06:29;;;;;;;15.55;12.55;;;;;;;;;;5038143;28;20075;-62
2022/05/15 00:08:58;;;;;;;14.95;12.63;;;;;;;;;;5055525;28;20136;-62
2022/05/15 00:11:27;;;;;;;16.95;13.27;;;;;;;;;;5055306;28;20041;-62
2022/05/15 00:14:02;;;;;;;17.35;11.82;;;;;;;;;;5055746;28;20037;-61
2022/05/15 00:16:33;;;;;;;14.40;12.48;;;;;;;;;;5055131;28;20103;-62
2022/05/15 00:19:02;;;;;;;15.23;12.32;;;;;;;;;;5055436;28;20045;-61
2022/05/15 00:21:31;;;;;;;14.95;13.35;;;;;;;;;;5055173;28;20069;-61
2022/05/15 00:24:01;;;;;;;18.98;12.80;;;;;;;;;;5055660;28;20041;-62
2022/05/15 00:26:30;;;;;;;16.20;11.93;;;;;;;;;;5054772;28;20041;-62
2022/05/15 00:28:58;;;;;;;19.60;11.00;;;;;;;;;;5037799;28;20139;-62
2022/05/15 00:31:27;;;;;;;13.55;12.18;;;;;;;;;;5054756;28;20474;-62
2022/05/15 00:33:55;;;;;;;17.40;12.55;;;;;;;;;;5055019;28;20049;-62
2022/05/15 00:36:23;;;;;;;17.95;12.43;;;;;;;;;;5037626;28;20053;-62
2022/05/15 00:38:52;;;;;;;12.98;10.75;;;;;;;;;;5036936;28;20149;-62
2022/05/15 00:41:20;;;;;;;19.38;13.55;;;;;;;;;;5055304;28;20044;-62
2022/05/15 00:43:52;;;;;;;16.13;12.75;;;;;;;;;;5036516;28;20052;-63
2022/05/15 00:46:28;;;;;;;18.33;12.82;;;;;;;;;;5055056;28;20049;-62
2022/05/15 00:49:00;;;;;;;19.02;13.52;;;;;;;;;;5036614;28;20141;-62
2022/05/15 00:51:44;;;;;;;15.07;12.40;;;;;;;;;;5037041;28;20045;-62
2022/05/15 00:54:24;;;;;;;15.77;12.02;;;;;;;;;;5036756;28;20381;-63
2022/05/15 00:57:22;;;;;;;13.30;11.90;;;;;;;;;;5054878;28;20177;-63
2022/05/15 01:00:10;;;;;;;17.45;12.85;;;;;;;;;;5020708;28;20056;-63
2022/05/15 01:02:43;;;;;;;12.23;11.00;;;;;;;;;;5036858;28;20037;-62
2022/05/15 01:05:13;;;;;;;18.23;11.43;;;;;;;;;;5020392;28;20056;-63
2022/05/15 01:08:01;;;;;;;19.20;12.68;;;;;;;;;;5036264;28;20057;-62
2022/05/15 01:10:30;;;;;;;21.45;10.82;;;;;;;;;;5054341;28;20049;-62
2022/05/15 01:13:00;;;;;;;11.32;10.15;;;;;;;;;;5020682;28;20056;-62
2022/05/15 01:15:29;;;;;;;17.25;10.30;;;;;;;;;;5054155;28;20399;-62
2022/05/15 01:18:01;;;;;;;15.48;10.95;;;;;;;;;;5035579;28;20045;-62
2022/05/15 01:20:31;;;;;;;15.00;10.00;;;;;;;;;;5036527;28;20437;-62
2022/05/15 01:23:00;;;;;;;12.35;10.43;;;;;;;;;;5036321;28;20107;-62
2022/05/15 01:25:33;;;;;;;15.75;10.60;;;;;;;;;;5036546;28;20099;-62
2022/05/15 01:28:12;;;;;;;17.15;10.20;;;;;;;;;;5036227;28;20139;-62
2022/05/15 01:30:43;;;;;;;11.65;10.52;;;;;;;;;;5036187;28;20041;-62
2022/05/15 01:33:12;;;;;;;20.80;10.13;;;;;;;;;;5036155;28;20154;-62
2022/05/15 01:35:41;;;;;;;15.65;10.38;;;;;;;;;;5036223;28;20496;-63
2022/05/15 01:38:10;;;;;;;17.05;10.98;;;;;;;;;;5053300;28;20055;-62
2022/05/15 01:40:38;;;;;;;11.55;10.32;;;;;;;;;;5054170;28;20048;-62
2022/05/15 01:43:07;;;;;;;16.13;10.35;;;;;;;;;;5035854;28;20139;-62
2022/05/15 01:45:35;;;;;;;12.15;10.38;;;;;;;;;;5035808;28;20041;-62
2022/05/15 01:48:04;;;;;;;15.65;11.13;;;;;;;;;;5036053;28;20131;-62
2022/05/15 01:50:33;;;;;;;14.45;10.55;;;;;;;;;;5035459;28;20072;-63
2022/05/15 01:53:03;;;;;;;15.15;11.95;;;;;;;;;;5036333;28;20099;-62
2022/05/15 01:55:31;;;;;;;14.05;12.23;;;;;;;;;;5035417;28;20044;-62
2022/05/15 01:57:59;;;;;;;17.90;11.65;;;;;;;;;;5035810;28;20086;-62
2022/05/15 02:00:28;;;;;;;15.68;12.23;;;;;;;;;;5035495;28;20091;-63
2022/05/15 02:02:57;;;;;;;17.60;11.55;;;;;;;;;;5035951;28;20049;-62
2022/05/15 02:05:28;;;;;;;14.05;10.45;;;;;;;;;;5035637;28;20136;-62
2022/05/15 02:07:58;;;;;;;17.45;11.18;;;;;;;;;;5035263;28;20049;-62
2022/05/15 02:10:27;;;;;;;13.57;10.65;;;;;;;;;;5035130;28;20087;-62
2022/05/15 02:12:55;;;;;;;18.23;11.38;;;;;;;;;;5035521;28;20076;-63
2022/05/15 02:15:24;;;;;;;18.50;11.07;;;;;;;;;;5053651;28;20396;-62
2022/05/15 02:17:56;;;;;;;13.20;11.18;;;;;;;;;;5035462;28;20052;-62
2022/05/15 02:20:24;;;;;;;13.05;10.63;;;;;;;;;;5035781;28;20143;-62
2022/05/15 02:22:52;;;;;;;11.88;10.00;;;;;;;;;;5052899;28;20440;-62
2022/05/15 02:25:22;;;;;;;19.10;11.32;;;;;;;;;;5035380;28;20049;-62
2022/05/15 02:27:50;;;;;;;17.10;10.82;;;;;;;;;;5036824;28;20053;-62
2022/05/15 02:30:20;;;;;;;12.75;11.23;;;;;;;;;;5041906;28;20098;-62
2022/05/15 02:32:48;;;;;;;15.88;11.63;;;;;;;;;;5059488;28;20072;-62
2022/05/15 02:35:16;;;;;;;12.15;10.82;;;;;;;;;;5041988;28;20094;-62
2022/05/15 02:37:47;;;;;;;16.33;10.27;;;;;;;;;;5059883;28;20127;-62
2022/05/15 02:40:18;;;;;;;16.40;11.32;;;;;;;;;;5041491;28;20057;-62
2022/05/15 02:42:48;;;;;;;14.48;10.68;;;;;;;;;;5059815;28;20531;-63
2022/05/15 02:45:18;;;;;;;13.02;11.25;;;;;;;;;;5041647;28;20056;-62
2022/05/15 02:47:47;;;;;;;12.95;11.15;;;;;;;;;;5041990;28;20450;-62
2022/05/15 02:53:03;;;;;;;12.18;9.90;;;;;;;;;;5042229;28;20095;-62
2022/05/15 02:55:32;;;;;;;13.80;11.02;;;;;;;;;;5041922;28;20141;-62
2022/05/15 02:58:01;;;;;;;16.70;10.45;;;;;;;;;;5059615;28;20048;-62
2022/05/15 03:00:29;;;;;;;16.13;10.18;;;;;;;;;;5059602;28;20143;-62
2022/05/15 03:03:00;;;;;;;12.73;10.63;;;;;;;;;;5059245;28;20060;-62
2022/05/15 03:05:29;;;;;;;13.27;10.13;;;;;;;;;;5041953;28;20510;-62
2022/05/15 03:07:59;;;;;;;14.40;10.20;;;;;;;;;;5058992;28;20478;-62
2022/05/15 03:10:27;;;;;;;24.98;11.65;;;;;;;;;;5041934;28;20163;-62
2022/05/15 03:12:56;;;;;;;17.67;11.13;;;;;;;;;;5059220;28;20052;-62
2022/05/15 03:15:24;;;;;;;14.32;11.13;;;;;;;;;;5059418;28;20439;-62
2022/05/15 03:17:52;;;;;;;12.77;11.48;;;;;;;;;;5059847;28;20083;-62
2022/05/15 03:20:21;;;;;;;13.48;12.10;;;;;;;;;;5058867;28;20393;-63
2022/05/15 03:22:49;;;;;;;13.30;11.38;;;;;;;;;;5042057;28;20147;-62
2022/05/15 03:25:18;;;;;;;14.73;11.77;;;;;;;;;;5058860;28;20578;-62
2022/05/15 03:27:46;;;;;;;15.10;12.13;;;;;;;;;;5041623;28;20049;-62
2022/05/15 03:30:16;;;;;;;14.82;11.18;;;;;;;;;;5041086;28;20544;-62
2022/05/15 03:32:46;;;;;;;15.13;10.80;;;;;;;;;;5041560;28;20052;-62
2022/05/15 03:35:15;;;;;;;16.90;10.55;;;;;;;;;;5058974;28;20055;-62
2022/05/15 03:37:43;;;;;;;15.07;11.63;;;;;;;;;;5041597;28;20040;-62
2022/05/15 03:40:15;;;;;;;14.23;10.32;;;;;;;;;;5056758;28;20141;-62
2022/05/15 03:42:44;;;;;;;14.52;10.73;;;;;;;;;;5056025;28;20083;-63
2022/05/15 03:45:12;;;;;;;13.63;10.23;;;;;;;;;;5056263;28;20136;-62
2022/05/15 03:47:51;;;;;;;13.88;10.50;;;;;;;;;;5037882;28;20427;-62
2022/05/15 03:50:22;;;;;;;18.17;10.68;;;;;;;;;;5038479;28;20159;-62
2022/05/15 03:52:53;;;;;;;17.38;11.82;;;;;;;;;;5054468;28;20107;-62
2022/05/15 03:55:23;;;;;;;17.80;10.43;;;;;;;;;;5038235;28;20049;-62
2022/05/15 03:57:56;;;;;;;16.50;10.57;;;;;;;;;;5038055;28;20056;-62
2022/05/15 04:00:26;;;;;;;14.98;9.63;;;;;;;;;;5056306;28;20140;-63
2022/05/15 04:02:54;;;;;;;14.98;9.13;;;;;;;;;;5037641;28;20140;-62
2022/05/15 04:05:24;;;;;;;12.60;9.98;;;;;;;;;;5055715;28;20511;-62
2022/05/15 04:07:53;;;;;;;17.48;10.68;;;;;;;;;;5055719;28;20568;-63
2022/05/15 04:10:22;;;;;;;14.10;9.15;;;;;;;;;;5037532;28;20411;-62
2022/05/15 04:12:51;;;;;;;13.77;10.15;;;;;;;;;;5055816;28;20041;-62
2022/05/15 04:15:21;;;;;;;14.23;9.93;;;;;;;;;;5055243;28;20045;-62
2022/05/15 04:17:50;;;;;;;14.25;10.32;;;;;;;;;;5055521;28;20128;-63
2022/05/15 04:20:22;;;;;;;17.95;10.02;;;;;;;;;;5037382;28;20120;-63
2022/05/15 04:22:53;;;;;;;14.50;10.80;;;;;;;;;;5036387;28;20101;-63
2022/05/15 04:25:21;;;;;;;11.35;9.85;;;;;;;;;;5052894;28;20056;-62
2022/05/15 04:27:50;;;;;;;15.18;8.93;;;;;;;;;;5055152;28;20124;-63
2022/05/15 04:30:23;;;;;;;10.93;9.48;;;;;;;;;;5054561;28;20041;-62
2022/05/15 04:32:52;;;;;;;17.67;10.60;;;;;;;;;;5036575;28;20098;-62
2022/05/15 04:35:21;;;;;;;15.93;10.75;;;;;;;;;;5036851;28;20419;-61
2022/05/15 04:37:51;;;;;;;13.65;9.88;;;;;;;;;;5053837;28;20519;-61
2022/05/15 04:40:22;;;;;;;16.17;10.23;;;;;;;;;;5054563;28;20569;-60
2022/05/15 04:42:50;;;;;;;14.80;9.45;;;;;;;;;;5054000;28;20136;-61
2022/05/15 04:45:19;;;;;;;13.18;9.13;;;;;;;;;;5054538;28;20057;-60
2022/05/15 04:47:48;;;;;;;10.82;9.57;;;;;;;;;;5053841;28;20419;-60
2022/05/15 04:50:18;;;;;;;15.13;10.15;;;;;;;;;;5054417;28;20053;-60
2022/05/15 04:52:47;;;;;;;15.07;9.52;;;;;;;;;;5052907;28;20551;-60
2022/05/15 04:55:16;;;;;;;10.77;9.20;;;;;;;;;;5054277;28;20060;-60
2022/05/15 04:57:45;;;;;;;12.85;10.05;;;;;;;;;;5053597;28;20045;-61
2022/05/15 05:00:22;;;;;;;13.52;9.63;;;;;;;;;;5044296;28;20041;-60
2022/05/15 05:02:57;;;;;;;12.95;10.02;;;;;;;;;;5043789;28;20439;-60
2022/05/15 05:05:30;;;;;;;13.35;9.95;;;;;;;;;;5043634;28;20454;-61
2022/05/15 05:08:08;;;;;;;16.77;10.77;;;;;;;;;;5050953;28;20140;-61
2022/05/15 05:10:45;;;;;;;14.93;10.02;;;;;;;;;;5033970;28;20052;-60
2022/05/15 05:13:23;;;;;;;13.63;10.55;;;;;;;;;;5051310;28;20040;-61
2022/05/15 05:16:01;;;;;;;13.35;10.20;;;;;;;;;;5050853;28;20137;-61
2022/05/15 05:18:36;;;;;;;14.07;10.18;;;;;;;;;;5051087;28;20573;-61
2022/05/15 05:21:12;;;;;;;11.18;9.93;;;;;;;;;;5047998;28;20045;-61
2022/05/15 05:23:49;;;;;;;10.77;9.77;;;;;;;;;;5048342;28;20072;-61
2022/05/15 05:26:21;;;;;;;11.65;9.93;;;;;;;;;;5050483;28;20049;-61
2022/05/15 05:29:01;;;;;;;12.20;9.63;;;;;;;;;;5051197;28;20061;-61
2022/05/15 05:31:39;;;;;;;29.42;11.35;;;;;;;;;;5050464;28;20049;-61
2022/05/15 05:34:16;;;;;;;15.60;10.02;;;;;;;;;;5046716;28;20076;-61
2022/05/15 05:36:48;;;;;;;12.23;9.20;;;;;;;;;;5049752;28;20368;-61
2022/05/15 05:39:19;;;;;;;19.70;9.23;;;;;;;;;;5050802;28;20057;-61
2022/05/15 05:41:47;;;;;;;12.02;10.73;;;;;;;;;;5051243;28;20049;-61
2022/05/15 05:44:16;;;;;;;15.82;9.82;;;;;;;;;;5050618;28;20037;-61
2022/05/15 05:46:46;;;;;;;10.45;9.50;;;;;;;;;;5050473;28;20056;-61
2022/05/15 05:49:14;;;;;;;14.07;11.00;;;;;;;;;;5050298;28;20059;-60
2022/05/15 05:51:42;;;;;;;13.80;10.85;;;;;;;;;;5050936;28;20075;-61
2022/05/15 05:54:10;;;;;;;15.90;9.90;;;;;;;;;;5050311;28;20052;-61
2022/05/15 05:56:38;;;;;;;12.82;10.95;;;;;;;;;;5051084;28;20049;-61
2022/05/15 05:59:08;;;;;;;10.65;9.55;;;;;;;;;;5051063;28;20101;-61
2022/05/15 06:01:37;;;;;;;16.08;10.13;;;;;;;;;;5050995;28;20033;-61
2022/05/15 06:06:56;;;;;;;12.30;9.93;;;;;;;;;;5042311;28;20064;-61
2022/05/15 06:09:23;;;;;;;11.80;9.32;;;;;;;;;;5049649;28;20053;-61
2022/05/15 06:11:52;;;;;;;14.63;10.27;;;;;;;;;;5051025;28;20080;-61
2022/05/15 06:14:21;;;;;;;13.07;10.05;;;;;;;;;;5047039;28;20103;-61
2022/05/15 06:16:51;;;;;;;15.55;9.95;;;;;;;;;;5050414;28;20056;-61
2022/05/15 06:19:19;;;;;;;12.48;9.77;;;;;;;;;;5050419;28;20128;-61
2022/05/15 06:21:48;;;;;;;14.20;10.00;;;;;;;;;;5049547;28;20797;-61
2022/05/15 06:24:16;;;;;;;17.00;10.32;;;;;;;;;;5050921;28;20750;-61
2022/05/15 06:26:44;;;;;;;12.10;10.90;;;;;;;;;;5051185;28;20049;-61
2022/05/15 06:29:13;;;;;;;11.70;10.27;;;;;;;;;;5051463;28;20053;-61
2022/05/15 06:31:42;;;;;;;11.43;10.00;;;;;;;;;;5049420;28;20041;-61
2022/05/15 06:34:10;;;;;;;12.68;10.30;;;;;;;;;;5050367;28;20098;-63
2022/05/15 06:36:38;;;;;;;13.48;10.20;;;;;;;;;;5050611;28;20156;-63
2022/05/15 06:39:08;;;;;;;18.20;10.90;;;;;;;;;;5050698;28;20056;-63
2022/05/15 06:41:37;;;;;;;11.77;8.90;;;;;;;;;;5050858;28;20140;-63
2022/05/15 06:44:06;;;;;;;13.63;9.20;;;;;;;;;;5049799;28;20053;-63
2022/05/15 06:46:35;;;;;;;13.02;9.40;;;;;;;;;;5049816;28;20049;-63
2022/05/15 06:49:03;;;;;;;15.63;9.05;;;;;;;;;;5049843;28;20045;-63
2022/05/15 06:51:31;;;;;;;11.35;8.00;;;;;;;;;;5050044;28;20068;-64
2022/05/15 06:54:02;;;;;;;14.63;8.38;;;;;;;;;;5050027;28;20040;-64
2022/05/15 06:59:20;;;;;;;16.63;9.55;;;;;;;;;;5050071;28;20049;-63
2022/05/15 07:01:48;;;;;;;9.75;8.75;;;;;;;;;;5050250;28;20413;-64
2022/05/15 07:04:16;;;;;;;10.98;8.98;;;;;;;;;;5050820;28;20044;-63
2022/05/15 07:06:44;;;;;;;11.10;9.05;;;;;;;;;;5050096;28;20147;-66
2022/05/15 07:09:13;;;;;;;13.90;8.73;;;;;;;;;;5050449;28;20405;-68
2022/05/15 07:11:42;;;;;;;13.13;8.65;;;;;;;;;;5050131;28;20124;-67
2022/05/15 07:14:12;;;;;;;11.07;9.82;;;;;;;;;;5051185;28;20056;-67
2022/05/15 07:16:40;;;;;;;15.60;9.13;;;;;;;;;;5053843;28;20554;-68
2022/05/15 07:19:10;;;;;;;11.23;9.25;;;;;;;;;;5055034;28;20052;-67
2022/05/15 07:21:42;;;;;;;16.15;9.10;;;;;;;;;;5055140;28;20510;-67
2022/05/15 07:24:12;;;;;;;15.40;8.60;;;;;;;;;;5054165;28;20131;-65
2022/05/15 07:26:44;;;;;;;11.93;9.07;;;;;;;;;;5054150;28;20053;-66
2022/05/15 07:29:14;;;;;;;22.58;8.63;;;;;;;;;;5054069;28;20052;-66
2022/05/15 07:31:42;;;;;;;15.18;8.98;;;;;;;;;;5054853;28;20037;-66
2022/05/15 07:34:11;;;;;;;14.98;9.48;;;;;;;;;;5054721;28;20065;-66
2022/05/15 07:36:39;;;;;;;18.10;10.15;;;;;;;;;;5054202;28;20452;-66
2022/05/15 07:39:07;;;;;;;15.80;9.32;;;;;;;;;;5055086;28;20069;-67
2022/05/15 07:41:35;;;;;;;12.57;8.52;;;;;;;;;;5054027;28;20542;-68
2022/05/15 07:44:05;;;;;;;12.18;9.02;;;;;;;;;;5053692;28;20049;-68
2022/05/15 07:46:34;;;;;;;11.05;9.15;;;;;;;;;;5053494;28;20053;-68
2022/05/15 07:49:02;;;;;;;15.32;9.82;;;;;;;;;;5053932;28;20454;-68
2022/05/15 07:51:32;;;;;;;13.80;9.77;;;;;;;;;;5051740;28;20053;-67
2022/05/15 07:54:04;;;;;;;12.43;9.30;;;;;;;;;;5052557;28;20049;-67
2022/05/15 07:56:35;;;;;;;9.43;8.52;;;;;;;;;;5051460;28;20144;-68
2022/05/15 07:59:07;;;;;;;11.32;9.48;;;;;;;;;;5050776;28;20060;-67
2022/05/15 08:01:39;;;;;;;12.00;8.32;;;;;;;;;;5051570;28;20084;-67
2022/05/15 08:04:11;;;;;;;14.88;9.60;;;;;;;;;;5034075;28;20697;-67
2022/05/15 08:09:33;;;;;;;10.05;8.63;;;;;;;;;;5051300;28;20055;-68
2022/05/15 08:12:05;;;;;;;10.77;8.75;;;;;;;;;;5049208;28;20048;-68
2022/05/15 08:14:35;;;;;;;12.15;9.40;;;;;;;;;;5050669;28;20045;-67
2022/05/15 08:17:11;;;;;;;11.20;8.65;;;;;;;;;;5051426;28;20041;-67
2022/05/15 08:25:15;;;;;;;12.13;8.23;;;;;;;;;;5054261;28;20048;-68
2022/05/15 08:27:43;;;;;;;16.75;11.23;;;;;;;;;;5055025;28;20135;-68
2022/05/15 08:30:12;;;;;;;13.57;8.57;;;;;;;;;;5054736;28;20126;-67
2022/05/15 08:32:42;;;;;;;13.45;7.38;;;;;;;;;;5055255;28;20107;-67
2022/05/15 08:35:14;;;;;;;12.45;8.40;;;;;;;;;;5055014;28;20072;-68
2022/05/15 08:37:42;;;;;;;10.52;8.10;;;;;;;;;;5054460;28;20041;-68
2022/05/15 08:40:10;;;;;;;8.88;7.32;;;;;;;;;;5053711;28;20055;-68
2022/05/15 08:42:47;;;;;;;17.27;6.90;;;;;;;;;;5036101;28;20365;-68
2022/05/15 08:45:17;;;;;;;13.27;7.22;;;;;;;;;;5053764;28;20107;-67
2022/05/15 08:47:48;;;;;;;16.67;7.78;;;;;;;;;;5053225;28;20049;-67
2022/05/15 08:50:20;;;;;;;38.55;9.27;;;;;;;;;;5036963;28;20056;-68
2022/05/15 08:53:02;;;;;;;12.15;9.35;;;;;;;;;;5035993;28;20056;-67
2022/05/15 08:55:50;;;;;;;12.38;8.32;;;;;;;;;;5054065;28;20140;-66
2022/05/15 08:58:55;;;;;;;10.68;9.15;;;;;;;;;;5053730;28;20049;-69
2022/05/15 09:01:29;;;;;;;15.27;8.35;;;;;;;;;;5054533;28;20057;-66
2022/05/15 09:03:58;;;;;;;11.40;8.95;;;;;;;;;;5053959;28;20053;-67
2022/05/15 09:06:48;;;;;;;11.95;8.60;;;;;;;;;;5053202;28;20057;-66
2022/05/15 09:09:32;;;;;;;19.15;7.68;;;;;;;;;;5044933;28;20044;-69
2022/05/15 09:12:18;;;;;;;13.25;9.10;;;;;;;;;;5050338;28;20049;-67
2022/05/15 09:15:05;;;;;;;10.30;7.45;;;;;;;;;;5043856;28;20106;-68
2022/05/15 09:17:47;;;;;;;14.82;7.18;;;;;;;;;;5024046;28;20500;-65
2022/05/15 09:20:36;;;;;;;11.48;6.60;;;;;;;;;;5040671;28;20742;-67
2022/05/15 09:23:20;;;;;;;11.85;6.60;;;;;;;;;;5040318;28;20057;-67
2022/05/15 09:26:00;;;;;;;12.10;7.88;;;;;;;;;;5041011;28;20049;-69
2022/05/15 09:28:29;;;;;;;14.60;7.55;;;;;;;;;;5040092;28;20578;-67
2022/05/15 09:31:01;;;;;;;10.80;6.53;;;;;;;;;;5049788;28;20091;-68
2022/05/15 09:33:44;;;;;;;14.73;7.60;;;;;;;;;;5049458;28;20436;-68
2022/05/15 09:36:17;;;;;;;10.13;7.45;;;;;;;;;;5048231;28;20053;-68
2022/05/15 09:38:49;;;;;;;15.32;7.63;;;;;;;;;;5047187;28;20076;-68
2022/05/15 09:44:27;;;;;;;11.10;6.85;;;;;;;;;;5033942;28;20094;-68
2022/05/15 09:47:00;;;;;;;14.80;7.63;;;;;;;;;;5052117;28;20053;-67
2022/05/15 09:49:33;;;;;;;17.70;6.25;;;;;;;;;;5034529;28;20052;-68
2022/05/15 09:52:17;;;;;;;21.02;7.80;;;;;;;;;;5052930;28;20139;-68
2022/05/15 09:54:47;;;;;;;12.15;5.72;;;;;;;;;;5017058;28;20121;-67
2022/05/15 09:57:24;;;;;;;9.30;4.88;;;;;;;;;;5053987;28;20049;-67
2022/05/15 09:59:59;;;;;;;9.73;5.43;;;;;;;;;;5053266;28;20037;-68
2022/05/15 10:02:48;;;;;;;8.02;4.95;;;;;;;;;;5053568;28;20076;-67
2022/05/15 10:05:21;;;;;;;14.50;5.18;;;;;;;;;;5053305;28;20041;-68
2022/05/15 10:07:57;;;;;;;7.57;5.13;;;;;;;;;;5053504;28;20084;-67
2022/05/15 10:10:45;;;;;;;6.25;3.65;;;;;;;;;;5035952;28;20103;-68
2022/05/15 10:13:27;;;;;;;10.68;5.68;;;;;;;;;;5053742;28;20403;-68
2022/05/15 10:15:58;;;;;;;12.00;4.90;;;;;;;;;;5036048;28;20106;-67
2022/05/15 10:18:29;;;;;;;13.68;6.05;;;;;;;;;;5053463;28;20044;-67
2022/05/15 10:21:00;;;;;;;10.02;7.22;;;;;;;;;;5036196;28;20139;-68
2022/05/15 10:23:48;;;;;;;7.97;5.75;;;;;;;;;;5035880;28;20106;-67
2022/05/15 10:26:24;;;;;;;12.20;5.65;;;;;;;;;;5035816;28;20033;-68
2022/05/15 10:28:52;;;;;;;11.63;6.95;;;;;;;;;;5018598;28;20081;-67
2022/05/15 10:31:21;;;;;;;15.25;5.35;;;;;;;;;;5053592;28;20067;-68
2022/05/15 10:33:51;;;;;;;9.80;4.95;;;;;;;;;;5052784;28;20048;-68
2022/05/15 10:36:20;;;;;;;9.88;5.95;;;;;;;;;;5053066;28;20053;-67
2022/05/15 10:39:18;;;;;;;11.27;5.03;;;;;;;;;;5052840;28;20057;-67
2022/05/15 10:42:22;;;;;;;9.18;5.15;;;;;;;;;;5018176;28;20041;-68
2022/05/15 10:45:15;;;;;;;8.02;5.25;;;;;;;;;;5052753;28;20068;-68
2022/05/15 10:48:10;;;;;;;13.57;4.88;;;;;;;;;;5053300;28;20075;-68
2022/05/15 10:51:14;;;;;;;11.98;5.40;;;;;;;;;;5052744;28;20503;-69
2022/05/15 10:57:55;;;;;;;9.43;4.30;;;;;;;;;;5053548;28;20107;-69
2022/05/15 11:01:15;;;;;;;16.05;5.40;;;;;;;;;;5052862;28;20111;-67
2022/05/15 11:04:16;;;;;;;11.23;4.25;;;;;;;;;;4971455;28;20042;-71
2022/05/15 11:06:58;;;;;;;10.77;4.70;;;;;;;;;;5009986;28;20865;-77
2022/05/15 11:09:59;;;;;;;10.77;5.47;;;;;;;;;;5035403;28;20069;-76
2022/05/15 11:13:09;;;;;;;14.48;6.05;;;;;;;;;;5036449;28;20045;-76
2022/05/15 11:15:41;;;;;;;11.32;5.47;;;;;;;;;;5035496;28;20144;-76
2022/05/15 11:18:26;;;;;;;14.88;8.35;;;;;;;;;;5036903;28;20148;-76
2022/05/15 11:21:01;;;;;;;8.10;6.10;;;;;;;;;;5036897;28;20532;-76
2022/05/15 11:23:43;;;;;;;15.25;6.88;;;;;;;;;;5036564;28;20046;-75
2022/05/15 11:26:37;;;;;;;10.98;6.93;;;;;;;;;;5036813;28;20042;-75
2022/05/15 11:29:10;;;;;;;12.45;6.00;;;;;;;;;;5035843;28;20049;-73
2022/05/15 11:31:49;;;;;;;79.45;33.58;;;;;;;;;;5035947;28;20050;-76
2022/05/15 11:34:17;;;;;;;7.95;6.18;;;;;;;;;;5035016;28;20408;-75
2022/05/15 11:36:49;;;;;;;13.07;6.60;;;;;;;;;;5036573;28;20057;-75
2022/05/15 11:39:18;;;;;;;17.40;7.80;;;;;;;;;;5035773;28;20049;-75
2022/05/15 11:42:08;;;;;;;14.05;5.80;;;;;;;;;;5036563;28;20141;-75
2022/05/15 11:44:44;;;;;;;9.23;5.72;;;;;;;;;;5036281;28;20060;-75
2022/05/15 11:47:15;;;;;;;19.38;5.47;;;;;;;;;;5036260;28;20042;-75
2022/05/15 11:50:00;;;;;;;17.98;5.80;;;;;;;;;;5036199;28;20049;-74
2022/05/15 11:52:50;;;;;;;10.82;5.82;;;;;;;;;;5036043;28;20489;-77
2022/05/15 11:55:37;;;;;;;23.08;6.97;;;;;;;;;;5034440;28;20420;-75
2022/05/15 11:58:34;;;;;;;11.85;5.32;;;;;;;;;;5035986;28;20555;-75
2022/05/15 12:01:15;;;;;;;11.40;4.50;;;;;;;;;;5030221;28;20049;-75
2022/05/15 12:03:52;;;;;;;6.95;4.70;;;;;;;;;;5030125;28;20041;-73
2022/05/15 12:06:32;;;;;;;9.23;4.03;;;;;;;;;;5035862;28;20489;-71
2022/05/15 12:09:18;;;;;;;7.88;5.30;;;;;;;;;;5033789;28;20054;-70
2022/05/15 12:12:23;;;;;;;10.50;4.13;;;;;;;;;;5035722;28;20053;-70
2022/05/15 12:15:27;;;;;;;10.95;5.72;;;;;;;;;;5035614;28;20132;-70
2022/05/15 12:17:59;;;;;;;7.25;3.88;;;;;;;;;;5035674;28;20060;-70
2022/05/15 12:20:29;;;;;;;10.63;5.05;;;;;;;;;;5034295;28;20500;-70
2022/05/15 12:22:59;;;;;;;9.35;4.13;;;;;;;;;;5035675;28;20049;-70
2022/05/15 12:25:52;;;;;;;8.52;4.82;;;;;;;;;;5033842;28;20046;-69
2022/05/15 12:31:36;;;;;;;5.10;4.25;;;;;;;;;;5035125;28;20060;-68
2022/05/15 12:34:35;;;;;;;7.43;4.85;;;;;;;;;;5013787;28;20136;-69
2022/05/15 12:37:10;;;;;;;11.85;4.70;;;;;;;;;;5014237;28;20137;-66
2022/05/15 12:39:42;;;;;;;12.95;5.45;;;;;;;;;;5015898;28;20042;-66
2022/05/15 12:42:24;;;;;;;10.93;6.10;;;;;;;;;;5015226;28;20107;-67
2022/05/15 12:45:10;;;;;;;9.02;4.13;;;;;;;;;;5015294;28;20137;-66
2022/05/15 12:47:40;;;;;;;9.80;6.70;;;;;;;;;;5015190;28;20053;-68
2022/05/15 12:50:21;;;;;;;11.48;4.78;;;;;;;;;;5015207;28;20056;-65
2022/05/15 12:52:56;;;;;;;9.73;5.10;;;;;;;;;;5041741;28;20060;-65
2022/05/15 12:55:45;;;;;;;6.60;4.93;;;;;;;;;;5034640;28;20401;-65
2022/05/15 12:58:14;;;;;;;10.50;4.57;;;;;;;;;;5032824;28;20052;-64
2022/05/15 13:00:43;;;;;;;12.15;4.78;;;;;;;;;;5033439;28;20049;-65
2022/05/15 13:03:12;;;;;;;9.77;4.90;;;;;;;;;;5033927;28;20535;-67
2022/05/15 13:05:48;;;;;;;10.65;6.18;;;;;;;;;;5034485;28;20107;-65
2022/05/15 13:08:15;;;;;;;;;;;;;;;;;;5046258;28;20095;-66
2022/05/15 13:10:58;;;;;;;10.25;5.68;;;;;;;;;;5054110;28;19947;-64
2022/05/15 13:13:34;;;;;;;7.30;5.55;;;;;;;;;;5050110;28;20124;-65
2022/05/15 13:16:03;;;;;;;10.20;5.28;;;;;;;;;;5036339;28;20083;-65
2022/05/15 13:18:35;;;;;;;11.23;4.90;;;;;;;;;;5054062;28;20056;-65
2022/05/15 13:21:07;;;;;;;8.68;4.30;;;;;;;;;;5053515;28;20049;-66
2022/05/15 13:23:46;;;;;;;7.85;4.32;;;;;;;;;;5054255;28;20369;-65
2022/05/15 13:26:21;;;;;;;9.80;4.55;;;;;;;;;;5036580;28;20450;-65
2022/05/15 13:28:51;;;;;;;6.78;5.03;;;;;;;;;;5054637;28;20067;-66
2022/05/15 13:31:22;;;;;;;11.40;4.72;;;;;;;;;;5053278;28;20495;-66
2022/05/15 13:33:54;;;;;;;10.68;4.13;;;;;;;;;;5053971;28;20056;-63
2022/05/15 13:36:24;;;;;;;8.13;4.50;;;;;;;;;;5053659;28;20049;-66
2022/05/15 13:44:39;;;;;;;8.27;4.82;;;;;;;;;;5039343;28;20072;-76
2022/05/15 13:47:10;;;;;;;11.48;4.00;;;;;;;;;;5035912;28;20071;-75
2022/05/15 13:49:42;;;;;;;11.00;4.63;;;;;;;;;;5034948;28;20041;-76
2022/05/15 13:52:24;;;;;;;10.70;4.07;;;;;;;;;;5053264;28;20049;-76
2022/05/15 13:54:54;;;;;;;7.82;4.60;;;;;;;;;;5051597;28;20065;-76
2022/05/15 13:57:22;;;;;;;7.72;4.85;;;;;;;;;;5051689;28;20079;-76
2022/05/15 13:59:50;;;;;;;8.00;4.57;;;;;;;;;;5051564;28;20041;-76
2022/05/15 14:02:55;;;;;;;8.77;4.47;;;;;;;;;;5051895;28;20057;-76
2022/05/15 14:05:23;;;;;;;7.57;4.78;;;;;;;;;;5051360;28;20091;-76
2022/05/15 14:07:51;;;;;;;7.07;3.88;;;;;;;;;;5051321;28;20140;-76
2022/05/15 14:10:23;;;;;;;9.25;5.18;;;;;;;;;;5035695;28;20076;-75
2022/05/15 14:13:03;;;;;;;11.73;4.15;;;;;;;;;;5054104;28;20076;-76
2022/05/15 14:15:36;;;;;;;7.80;4.57;;;;;;;;;;5053179;28;20530;-76
2022/05/15 14:18:12;;;;;;;13.77;4.15;;;;;;;;;;5023977;28;20443;-75
2022/05/15 14:20:44;;;;;;;9.90;4.88;;;;;;;;;;5033583;28;20050;-75
2022/05/15 14:23:14;;;;;;;7.38;3.83;;;;;;;;;;5051931;28;20128;-75
2022/05/15 14:25:44;;;;;;;8.40;4.22;;;;;;;;;;5034523;28;20488;-76
2022/05/15 14:28:15;;;;;;;;;;;;;;;;;;5041288;28;20053;-76
2022/05/15 14:30:44;;;;;;;6.32;4.43;;;;;;;;;;5046391;28;19921;-76
2022/05/15 14:33:18;;;;;;;9.27;4.90;;;;;;;;;;5043465;28;20073;-75
2022/05/15 14:36:06;;;;;;;6.32;4.05;;;;;;;;;;5048534;28;20048;-76
2022/05/15 14:38:36;;;;;;;8.48;5.18;;;;;;;;;;5044203;28;20140;-76
2022/05/15 14:41:06;;;;;;;8.68;4.60;;;;;;;;;;5042668;28;20508;-76
2022/05/15 14:43:35;;;;;;;6.65;3.88;;;;;;;;;;5050620;28;20045;-76
2022/05/15 14:46:08;;;;;;;7.32;3.90;;;;;;;;;;5052562;28;20488;-76
2022/05/15 14:48:38;;;;;;;6.00;4.90;;;;;;;;;;5052018;28;20079;-76
2022/05/15 14:51:11;;;;;;;6.78;4.38;;;;;;;;;;5052137;28;20075;-76
2022/05/15 14:53:39;;;;;;;10.13;4.68;;;;;;;;;;5035172;28;20550;-76
2022/05/15 14:56:10;;;;;;;10.23;4.63;;;;;;;;;;5053250;28;20084;-76
2022/05/15 14:58:43;;;;;;;8.75;4.25;;;;;;;;;;5036414;28;20049;-76
2022/05/15 15:01:11;;;;;;;7.40;4.25;;;;;;;;;;5035661;28;20075;-76
2022/05/15 15:03:40;;;;;;;6.95;4.72;;;;;;;;;;5053682;28;20045;-76
2022/05/15 15:06:09;;;;;;;7.93;4.57;;;;;;;;;;5052925;28;20049;-76
2022/05/15 15:08:37;;;;;;;5.10;4.35;;;;;;;;;;5034957;28;20080;-76
2022/05/15 15:11:12;;;;;;;6.35;4.13;;;;;;;;;;5052668;28;20045;-76
2022/05/15 15:13:43;;;;;;;5.28;4.18;;;;;;;;;;5053544;28;20049;-76
2022/05/15 15:16:13;;;;;;;5.70;5.10;;;;;;;;;;5053192;28;20045;-76
2022/05/15 15:18:42;;;;;;;8.88;4.47;;;;;;;;;;5053109;28;20072;-76
2022/05/15 15:21:11;;;;;;;8.52;4.72;;;;;;;;;;5053049;28;20049;-76
2022/05/15 15:23:39;;;;;;;8.98;4.47;;;;;;;;;;5052586;28;20469;-76
2022/05/15 15:26:08;;;;;;;6.40;4.10;;;;;;;;;;5052882;28;20135;-76
2022/05/15 15:28:36;;;;;;;7.80;5.57;;;;;;;;;;5052300;28;20148;-76
2022/05/15 15:31:06;;;;;;;8.05;4.63;;;;;;;;;;5052936;28;20182;-76
2022/05/15 15:33:35;;;;;;;6.40;4.10;;;;;;;;;;5052866;28;20491;-76
2022/05/15 15:36:05;;;;;;;14.32;5.75;;;;;;;;;;5054016;28;20110;-76
2022/05/15 15:38:34;;;;;;;8.32;4.57;;;;;;;;;;5056838;28;20100;-76